createdAt,value
2018-03-20T00:01:38.197Z,26.50
2018-03-20T00:04:06.385Z,26.33
2018-03-20T00:06:34.562Z,26.05
2018-03-20T00:09:02.761Z,28.55
2018-03-20T00:11:30.961Z,26.48
2018-03-20T00:13:59.156Z,27.83
2018-03-20T00:16:27.356Z,27.95
2018-03-20T00:18:55.639Z,26.42
2018-03-20T00:21:23.901Z,27.37
2018-03-20T00:23:52.751Z,28.58
2018-03-20T00:26:20.842Z,27.37
2018-03-20T00:28:49.037Z,34.97
2018-03-20T00:31:17.265Z,31.30
2018-03-20T00:33:45.525Z,26.08
2018-03-20T00:36:13.727Z,26.25
2018-03-20T00:38:41.885Z,27.27
2018-03-20T00:41:10.204Z,28.10
2018-03-20T00:43:38.615Z,33.45
2018-03-20T00:46:06.904Z,36.47
2018-03-20T00:48:35.100Z,34.33
2018-03-20T00:51:03.411Z,32.20
2018-03-20T00:53:31.877Z,33.75
2018-03-20T00:56:00.104Z,32.08
2018-03-20T00:58:28.499Z,28.58
2018-03-20T01:00:56.785Z,36.30
2018-03-20T01:03:25.099Z,31.75
2018-03-20T01:05:53.300Z,36.08
2018-03-20T01:08:21.384Z,35.55
2018-03-20T01:10:49.676Z,35.10
2018-03-20T01:13:18.058Z,29.60
2018-03-20T01:15:46.355Z,33.30
2018-03-20T01:18:14.515Z,34.28
2018-03-20T01:20:42.759Z,32.85
2018-03-20T01:23:11.061Z,39.42
2018-03-20T01:25:39.441Z,35.92
2018-03-20T01:28:07.738Z,30.62
2018-03-20T01:30:35.842Z,31.35
2018-03-20T01:33:04.038Z,31.75
2018-03-20T01:35:32.201Z,33.78
2018-03-20T01:38:00.344Z,35.75
2018-03-20T01:40:28.518Z,33.25
2018-03-20T01:42:57.422Z,33.70
2018-03-20T01:45:25.624Z,24.65
2018-03-20T01:47:53.562Z,28.90
2018-03-20T01:50:21.695Z,33.22
2018-03-20T01:52:49.996Z,27.45
2018-03-20T01:55:18.299Z,27.85
2018-03-20T01:57:46.701Z,33.13
2018-03-20T02:00:15.096Z,35.13
2018-03-20T02:02:43.396Z,29.12
2018-03-20T02:05:11.522Z,30.12
2018-03-20T02:07:39.742Z,29.33
2018-03-20T02:10:07.859Z,31.45
2018-03-20T02:12:36.354Z,35.50
2018-03-20T02:15:04.574Z,39.40
2018-03-20T02:17:32.864Z,32.33
2018-03-20T02:20:01.175Z,29.25
2018-03-20T02:22:29.366Z,31.00
2018-03-20T02:24:57.845Z,32.35
2018-03-20T02:27:25.920Z,33.15
2018-03-20T02:29:54.048Z,35.42
2018-03-20T02:32:22.242Z,39.25
2018-03-20T02:34:50.739Z,31.83
2018-03-20T02:37:19.034Z,28.45
2018-03-20T02:39:47.360Z,36.03
2018-03-20T02:42:15.720Z,33.03
2018-03-20T02:44:44.022Z,35.83
2018-03-20T02:47:12.318Z,37.08
2018-03-20T02:49:40.616Z,36.30
2018-03-20T02:52:08.818Z,33.42
2018-03-20T02:54:37.019Z,41.58
2018-03-20T02:57:05.099Z,34.67
2018-03-20T02:59:33.289Z,44.30
2018-03-20T03:02:01.581Z,37.38
2018-03-20T03:04:29.878Z,34.28
2018-03-20T03:06:58.198Z,33.58
2018-03-20T03:09:26.411Z,38.13
2018-03-20T03:11:54.665Z,44.50
2018-03-20T03:14:22.850Z,34.55
2018-03-20T03:16:51.165Z,38.63
2018-03-20T03:19:19.449Z,35.30
2018-03-20T03:21:47.758Z,39.95
2018-03-20T03:24:16.066Z,35.30
2018-03-20T03:26:44.355Z,36.65
2018-03-20T03:29:12.542Z,33.33
2018-03-20T03:31:40.627Z,32.65
2018-03-20T03:34:09.063Z,33.92
2018-03-20T03:36:37.238Z,32.72
2018-03-20T03:39:05.427Z,32.92
2018-03-20T03:41:33.529Z,33.20
2018-03-20T03:44:01.723Z,37.17
2018-03-20T03:46:29.876Z,32.30
2018-03-20T03:48:58.089Z,36.72
2018-03-20T03:51:26.290Z,36.47
2018-03-20T03:53:54.998Z,32.65
2018-03-20T03:56:23.280Z,34.75
2018-03-20T03:58:52.510Z,38.85
2018-03-20T04:01:20.835Z,33.47
2018-03-20T04:03:49.097Z,31.10
2018-03-20T04:06:17.418Z,38.25
2018-03-20T04:08:45.699Z,32.80
2018-03-20T04:11:13.849Z,37.88
2018-03-20T04:13:42.078Z,33.22
2018-03-20T04:16:10.380Z,37.28
2018-03-20T04:18:38.578Z,33.58
2018-03-20T04:21:06.768Z,38.38
2018-03-20T04:23:34.973Z,28.98
2018-03-20T04:26:03.235Z,35.55
2018-03-20T04:28:31.362Z,40.45
2018-03-20T04:30:59.434Z,36.17
2018-03-20T04:33:27.465Z,36.55
2018-03-20T04:35:55.626Z,36.80
2018-03-20T04:38:23.934Z,34.80
2018-03-20T04:40:52.127Z,37.03
2018-03-20T04:43:20.314Z,34.50
2018-03-20T04:45:48.619Z,39.10
2018-03-20T04:48:16.828Z,38.28
2018-03-20T04:50:45.103Z,34.30
2018-03-20T04:53:13.261Z,41.85
2018-03-20T04:55:41.698Z,38.78
2018-03-20T04:58:09.886Z,39.85
2018-03-20T05:00:38.096Z,34.35
2018-03-20T05:03:06.295Z,30.58
2018-03-20T05:05:34.591Z,40.67
2018-03-20T05:08:02.784Z,36.40
2018-03-20T05:10:30.956Z,38.28
2018-03-20T05:12:59.055Z,35.60
2018-03-20T05:15:27.112Z,34.72
2018-03-20T05:17:55.457Z,37.40
2018-03-20T05:20:23.716Z,33.22
2018-03-20T05:22:52.040Z,34.47
2018-03-20T05:25:20.339Z,34.90
2018-03-20T05:27:48.638Z,37.38
2018-03-20T05:30:16.936Z,36.38
2018-03-20T05:32:45.219Z,36.00
2018-03-20T05:35:13.434Z,43.75
2018-03-20T05:37:41.615Z,35.10
2018-03-20T05:40:09.717Z,42.20
2018-03-20T05:42:38.007Z,41.92
2018-03-20T05:45:06.191Z,37.60
2018-03-20T05:47:34.509Z,33.17
2018-03-20T05:50:03.005Z,33.63
2018-03-20T05:52:31.195Z,38.72
2018-03-20T05:54:59.301Z,34.83
2018-03-20T05:57:27.589Z,34.72
2018-03-20T05:59:55.720Z,29.98
2018-03-20T06:02:23.964Z,33.97
2018-03-20T06:04:52.267Z,39.88
2018-03-20T06:07:20.767Z,37.42
2018-03-20T06:09:49.109Z,31.73
2018-03-20T06:12:17.477Z,39.22
2018-03-20T06:14:46.459Z,38.42
2018-03-20T06:17:14.581Z,34.90
2018-03-20T06:19:42.875Z,31.37
2018-03-20T06:22:11.058Z,37.25
2018-03-20T06:24:39.877Z,36.85
2018-03-20T06:27:08.054Z,35.45
2018-03-20T06:29:36.158Z,31.15
2018-03-20T06:32:04.342Z,30.15
2018-03-20T06:34:32.351Z,36.60
2018-03-20T06:37:00.414Z,30.48
2018-03-20T06:39:28.718Z,29.67
2018-03-20T06:41:57.121Z,39.20
2018-03-20T06:44:25.424Z,36.67
2018-03-20T06:46:53.712Z,35.88
2018-03-20T06:49:21.826Z,33.63
2018-03-20T06:51:50.113Z,35.47
2018-03-20T06:54:18.401Z,39.33
2018-03-20T06:56:46.606Z,35.83
2018-03-20T06:59:14.609Z,37.40
2018-03-20T07:01:42.774Z,32.95
2018-03-20T07:04:10.877Z,31.80
2018-03-20T07:06:39.073Z,32.10
2018-03-20T07:09:07.272Z,35.55
2018-03-20T07:11:35.460Z,34.10
2018-03-20T07:14:03.655Z,37.42
2018-03-20T07:16:31.857Z,36.13
2018-03-20T07:18:59.956Z,33.47
2018-03-20T07:21:28.195Z,37.17
2018-03-20T07:23:56.530Z,32.35
2018-03-20T07:26:24.938Z,29.27
2018-03-20T07:28:53.237Z,29.87
2018-03-20T07:31:21.632Z,34.55
2018-03-20T07:33:49.815Z,35.97
2018-03-20T07:36:18.024Z,29.25
2018-03-20T07:38:46.114Z,27.83
2018-03-20T07:41:14.308Z,31.30
2018-03-20T07:43:42.399Z,32.15
2018-03-20T07:46:10.478Z,32.08
2018-03-20T07:48:38.690Z,30.67
2018-03-20T07:51:06.870Z,33.58
2018-03-20T07:53:34.974Z,32.78
2018-03-20T07:56:03.165Z,30.85
2018-03-20T07:58:31.466Z,32.00
2018-03-20T08:00:59.609Z,28.12
2018-03-20T08:03:27.845Z,26.67
2018-03-20T08:05:56.241Z,31.65
2018-03-20T08:08:24.547Z,30.42
2018-03-20T08:10:52.838Z,34.40
2018-03-20T08:13:21.540Z,25.15
2018-03-20T08:15:49.737Z,30.62
2018-03-20T08:18:17.944Z,32.95
2018-03-20T08:20:46.232Z,26.95
2018-03-20T08:23:15.353Z,31.98
2018-03-20T08:25:43.535Z,29.35
2018-03-20T08:28:11.631Z,29.30
2018-03-20T08:30:39.716Z,32.00
2018-03-20T08:33:07.920Z,32.28
2018-03-20T08:35:36.212Z,33.80
2018-03-20T08:38:04.409Z,30.02
2018-03-20T08:40:32.349Z,34.10
2018-03-20T08:43:00.314Z,30.37
2018-03-20T08:45:28.582Z,27.67
2018-03-20T08:47:56.776Z,34.97
2018-03-20T08:50:24.974Z,30.25
2018-03-20T08:52:53.270Z,30.60
2018-03-20T08:55:21.362Z,29.92
2018-03-20T08:57:49.562Z,30.07
2018-03-20T09:00:17.748Z,27.63
2018-03-20T09:02:45.946Z,28.63
2018-03-20T09:05:14.036Z,28.60
2018-03-20T09:07:42.237Z,30.97
2018-03-20T09:10:10.316Z,28.03
2018-03-20T09:12:38.514Z,29.00
2018-03-20T09:15:06.710Z,29.87
2018-03-20T09:17:35.004Z,31.90
2018-03-20T09:20:03.305Z,29.07
2018-03-20T09:22:31.594Z,29.43
2018-03-20T09:24:59.703Z,28.73
2018-03-20T09:27:28.095Z,28.87
2018-03-20T09:29:56.437Z,29.10
2018-03-20T09:32:24.781Z,29.97
2018-03-20T09:34:52.876Z,30.80
2018-03-20T09:37:21.076Z,28.70
2018-03-20T09:39:49.281Z,29.27
2018-03-20T09:42:17.462Z,35.17
2018-03-20T09:44:45.760Z,32.00
2018-03-20T09:47:13.975Z,31.70
2018-03-20T09:49:42.066Z,28.50
2018-03-20T09:52:10.246Z,33.70
2018-03-20T09:54:38.426Z,32.63
2018-03-20T09:57:06.622Z,32.97
2018-03-20T09:59:34.621Z,32.55
2018-03-20T10:02:02.924Z,35.17
2018-03-20T10:04:31.322Z,34.03
2018-03-20T10:06:59.507Z,32.25
2018-03-20T10:09:27.601Z,31.98
2018-03-20T10:11:56.003Z,34.78
2018-03-20T10:14:24.100Z,33.17
2018-03-20T10:16:52.280Z,32.95
2018-03-20T10:19:20.375Z,28.65
2018-03-20T10:21:48.577Z,27.60
2018-03-20T10:24:16.765Z,28.70
2018-03-20T10:26:44.964Z,26.80
2018-03-20T10:29:13.055Z,32.95
2018-03-20T10:31:41.155Z,25.80
2018-03-20T10:34:09.351Z,24.23
2018-03-20T10:36:37.432Z,24.35
2018-03-20T10:39:05.835Z,27.27
2018-03-20T10:41:34.806Z,28.35
2018-03-20T10:44:03.030Z,26.92
2018-03-20T10:46:31.239Z,25.12
2018-03-20T10:48:59.384Z,24.77
2018-03-20T10:51:27.514Z,20.98
2018-03-20T10:53:55.818Z,21.52
2018-03-20T10:56:24.016Z,22.10
2018-03-20T10:58:52.205Z,23.67
2018-03-20T11:01:20.286Z,25.08
2018-03-20T11:03:48.482Z,22.42
2018-03-20T11:06:16.579Z,24.92
2018-03-20T11:08:44.775Z,21.77
2018-03-20T11:11:12.979Z,26.40
2018-03-20T11:13:41.262Z,25.55
2018-03-20T11:16:09.352Z,21.70
2018-03-20T11:18:37.757Z,23.08
2018-03-20T11:21:05.946Z,27.02
2018-03-20T11:23:34.251Z,25.27
2018-03-20T11:26:02.348Z,23.67
2018-03-20T11:28:30.642Z,24.25
2018-03-20T11:30:58.934Z,20.75
2018-03-20T11:33:27.025Z,21.52
2018-03-20T11:35:55.111Z,19.77
2018-03-20T11:38:23.313Z,20.77
2018-03-20T11:40:51.510Z,19.35
2018-03-20T11:43:19.697Z,24.37
2018-03-20T11:45:47.905Z,18.80
2018-03-20T11:48:16.086Z,22.02
2018-03-20T11:50:44.174Z,21.87
2018-03-20T11:53:12.371Z,26.10
2018-03-20T11:55:40.878Z,26.55
2018-03-20T11:58:09.182Z,20.95
2018-03-20T12:00:37.369Z,23.05
2018-03-20T12:03:05.569Z,25.70
2018-03-20T12:05:33.769Z,27.48
2018-03-20T12:08:02.148Z,25.33
2018-03-20T12:10:30.248Z,25.37
2018-03-20T12:12:58.348Z,23.23
2018-03-20T12:15:26.337Z,22.55
2018-03-20T12:17:54.528Z,21.58
2018-03-20T12:20:22.711Z,27.60
2018-03-20T12:22:50.911Z,23.77
2018-03-20T12:25:19.192Z,23.70
2018-03-20T12:27:47.306Z,25.42
2018-03-20T12:30:15.386Z,25.77
2018-03-20T12:32:43.596Z,24.65
2018-03-20T12:35:11.674Z,24.08
2018-03-20T12:37:39.871Z,25.75
2018-03-20T12:40:08.065Z,26.70
2018-03-20T12:42:36.163Z,26.85
2018-03-20T12:45:04.558Z,25.75
2018-03-20T12:47:32.958Z,28.38
2018-03-20T12:50:01.252Z,23.35
2018-03-20T12:52:29.459Z,28.15
2018-03-20T12:54:57.639Z,26.85
2018-03-20T12:57:25.852Z,27.48
2018-03-20T12:59:54.741Z,29.08
2018-03-20T13:02:22.948Z,29.30
2018-03-20T13:04:51.037Z,29.48
2018-03-20T13:07:19.342Z,26.20
2018-03-20T13:09:47.537Z,32.63
2018-03-20T13:12:15.717Z,34.85
2018-03-20T13:14:43.817Z,31.02
2018-03-20T13:17:11.897Z,30.58
2018-03-20T13:19:40.818Z,32.33
2018-03-20T13:22:09.017Z,32.05
2018-03-20T13:24:37.099Z,32.33
2018-03-20T13:27:05.297Z,30.17
2018-03-20T13:29:33.596Z,32.65
2018-03-20T13:32:01.689Z,31.50
2018-03-20T13:34:29.779Z,33.05
2018-03-20T13:36:57.862Z,33.10
2018-03-20T13:39:26.064Z,29.15
2018-03-20T13:41:54.164Z,27.58
2018-03-20T13:44:22.377Z,31.80
2018-03-20T13:46:50.851Z,33.80
2018-03-20T13:49:19.043Z,28.33
2018-03-20T13:51:47.237Z,28.23
2018-03-20T13:54:15.444Z,29.60
2018-03-20T13:56:43.724Z,35.75
2018-03-20T13:59:11.936Z,29.35
2018-03-20T14:01:40.331Z,29.73
2018-03-20T14:04:08.516Z,28.65
2018-03-20T14:06:36.708Z,29.92
2018-03-20T14:09:04.907Z,31.02
2018-03-20T14:11:33.099Z,30.25
2018-03-20T14:14:01.308Z,24.50
2018-03-20T14:16:29.492Z,30.50
2018-03-20T14:18:57.586Z,27.87
2018-03-20T14:21:25.791Z,29.27
2018-03-20T14:23:54.070Z,30.90
2018-03-20T14:26:22.172Z,24.65
2018-03-20T14:28:50.460Z,28.83
2018-03-20T14:31:18.607Z,28.70
2018-03-20T14:33:46.852Z,32.20
2018-03-20T14:36:14.951Z,33.40
2018-03-20T14:38:43.338Z,34.03
2018-03-20T14:41:11.536Z,38.22
2018-03-20T14:43:39.728Z,34.15
2018-03-20T14:46:08.335Z,33.78
2018-03-20T14:48:36.625Z,33.97
2018-03-20T14:51:04.835Z,35.22
2018-03-20T14:53:33.123Z,29.83
2018-03-20T14:56:01.627Z,35.97
2018-03-20T14:58:29.810Z,32.65
2018-03-20T15:00:57.900Z,29.92
2018-03-20T15:03:26.069Z,32.47
2018-03-20T15:05:54.213Z,28.73
2018-03-20T15:08:22.283Z,29.12
2018-03-20T15:10:50.490Z,30.92
2018-03-20T15:13:18.685Z,31.75
2018-03-20T15:15:46.891Z,33.15
2018-03-20T15:18:15.062Z,28.12
2018-03-20T15:20:43.474Z,29.55
2018-03-20T15:23:11.906Z,32.75
2018-03-20T15:25:40.167Z,26.92
2018-03-20T15:28:08.621Z,34.97
2018-03-20T15:30:36.977Z,30.35
2018-03-20T15:33:05.383Z,29.92
2018-03-20T15:35:33.856Z,38.80
2018-03-20T15:38:02.255Z,35.35
2018-03-20T15:40:30.462Z,38.40
2018-03-20T15:42:58.642Z,28.48
2018-03-20T15:45:26.694Z,28.92
2018-03-20T15:47:54.940Z,33.78
2018-03-20T15:50:23.125Z,33.25
2018-03-20T15:52:51.364Z,36.17
2018-03-20T15:55:19.520Z,29.42
2018-03-20T15:57:47.725Z,28.42
2018-03-20T16:00:15.900Z,34.10
2018-03-20T16:02:44.005Z,34.40
2018-03-20T16:05:12.286Z,31.83
2018-03-20T16:07:40.579Z,31.48
2018-03-20T16:10:08.880Z,35.30
2018-03-20T16:12:37.286Z,36.03
2018-03-20T16:15:05.402Z,28.33
2018-03-20T16:17:33.481Z,33.28
2018-03-20T16:20:01.675Z,32.65
2018-03-20T16:22:30.256Z,35.22
2018-03-20T16:24:58.462Z,32.30
2018-03-20T16:27:26.654Z,39.20
2018-03-20T16:29:54.856Z,32.92
2018-03-20T16:32:23.050Z,37.47
2018-03-20T16:34:51.142Z,40.08
2018-03-20T16:37:19.344Z,38.50
2018-03-20T16:39:47.527Z,37.22
2018-03-20T16:42:15.833Z,34.22
2018-03-20T16:44:44.115Z,37.13
2018-03-20T16:47:13.232Z,38.25
2018-03-20T16:49:41.526Z,37.38
2018-03-20T16:52:09.944Z,34.58
2018-03-20T16:54:38.128Z,32.58
2018-03-20T16:57:06.230Z,32.63
2018-03-20T16:59:34.414Z,32.70
2018-03-20T17:02:02.610Z,33.47
2018-03-20T17:04:30.691Z,37.83
2018-03-20T17:06:58.788Z,34.45
2018-03-20T17:09:26.879Z,32.03
2018-03-20T17:11:54.979Z,40.47
2018-03-20T17:14:23.193Z,29.75
2018-03-20T17:16:51.358Z,36.35
2018-03-20T17:19:19.556Z,30.88
2018-03-20T17:21:47.851Z,29.95
2018-03-20T17:24:16.153Z,32.08
2018-03-20T17:26:44.352Z,30.80
2018-03-20T17:29:12.536Z,34.10
2018-03-20T17:31:40.728Z,31.17
2018-03-20T17:34:08.934Z,37.15
2018-03-20T17:36:37.117Z,40.72
2018-03-20T17:39:06.358Z,40.10
2018-03-20T17:41:34.638Z,35.47
2018-03-20T17:44:02.827Z,41.60
2018-03-20T17:46:31.039Z,36.63
2018-03-20T17:48:59.177Z,39.40
2018-03-20T17:51:27.417Z,39.78
2018-03-20T17:53:55.497Z,40.28
2018-03-20T17:56:23.685Z,35.55
2018-03-20T17:58:51.797Z,29.83
2018-03-20T18:01:19.977Z,33.20
2018-03-20T18:03:48.179Z,39.05
2018-03-20T18:06:16.377Z,34.45
2018-03-20T18:08:44.478Z,35.92
2018-03-20T18:11:12.658Z,35.75
2018-03-20T18:13:41.048Z,31.83
2018-03-20T18:16:09.457Z,34.65
2018-03-20T18:18:37.549Z,34.15
2018-03-20T18:21:05.746Z,40.03
2018-03-20T18:23:33.838Z,39.28
2018-03-20T18:26:02.200Z,43.60
2018-03-20T18:28:30.258Z,37.08
2018-03-20T18:30:58.429Z,41.58
2018-03-20T18:33:27.531Z,41.45
2018-03-20T18:35:55.775Z,39.13
2018-03-20T18:38:23.812Z,37.10
2018-03-20T18:40:52.017Z,35.00
2018-03-20T18:43:20.213Z,38.70
2018-03-20T18:45:48.414Z,39.83
2018-03-20T18:48:16.382Z,42.22
2018-03-20T18:50:44.694Z,41.50
2018-03-20T18:53:13.415Z,33.97
2018-03-20T18:55:41.534Z,39.38
2018-03-20T18:58:09.653Z,47.20
2018-03-20T19:00:37.873Z,40.55
2018-03-20T19:03:06.075Z,45.12
2018-03-20T19:05:34.298Z,42.67
2018-03-20T19:08:02.479Z,37.15
2018-03-20T19:10:30.753Z,39.95
2018-03-20T19:12:58.953Z,41.15
2018-03-20T19:15:27.154Z,35.65
2018-03-20T19:17:55.134Z,39.22
2018-03-20T19:20:23.433Z,45.85
2018-03-20T19:22:51.515Z,43.97
2018-03-20T19:25:19.813Z,44.40
2018-03-20T19:27:47.973Z,43.35
2018-03-20T19:30:16.086Z,43.45
2018-03-20T19:32:44.320Z,44.53
2018-03-20T19:35:12.500Z,45.45
2018-03-20T19:37:40.706Z,46.72
2018-03-20T19:40:09.819Z,49.25
2018-03-20T19:42:37.999Z,41.55
2018-03-20T19:45:06.297Z,42.22
2018-03-20T19:47:34.430Z,42.22
2018-03-20T19:50:02.531Z,43.97
2018-03-20T19:52:30.791Z,51.40
2018-03-20T19:54:58.931Z,41.78
2018-03-20T19:57:27.131Z,40.63
2018-03-20T19:59:55.251Z,39.83
2018-03-20T20:02:23.576Z,45.28
2018-03-20T20:04:52.376Z,43.30
2018-03-20T20:07:20.550Z,39.45
2018-03-20T20:09:48.655Z,40.05
2018-03-20T20:12:16.842Z,46.83
2018-03-20T20:14:44.944Z,45.75
2018-03-20T20:17:13.125Z,39.95
2018-03-20T20:19:41.285Z,44.15
2018-03-20T20:22:09.565Z,44.67
2018-03-20T20:24:37.825Z,40.55
2018-03-20T20:27:09.184Z,39.83
2018-03-20T20:29:37.265Z,37.15
2018-03-20T20:32:05.429Z,38.55
2018-03-20T20:34:33.610Z,42.92
2018-03-20T20:37:01.965Z,45.90
2018-03-20T20:39:30.168Z,40.65
2018-03-20T20:41:58.327Z,42.00
2018-03-20T20:44:26.452Z,44.58
2018-03-20T20:46:54.690Z,50.75
2018-03-20T20:49:23.042Z,45.15
2018-03-20T20:51:51.141Z,45.28
2018-03-20T20:54:19.560Z,36.65
2018-03-20T20:56:47.863Z,38.85
2018-03-20T20:59:15.920Z,34.88
2018-03-20T21:01:44.201Z,37.60
2018-03-20T21:04:12.398Z,37.80
2018-03-20T21:06:40.610Z,37.15
2018-03-20T21:09:08.806Z,38.08
2018-03-20T21:11:36.986Z,40.92
2018-03-20T21:14:05.066Z,41.83
2018-03-20T21:16:33.262Z,36.17
2018-03-20T21:19:01.363Z,41.20
2018-03-20T21:21:29.561Z,36.28
2018-03-20T21:23:57.754Z,41.08
2018-03-20T21:26:26.199Z,77.25
2018-03-20T21:28:54.462Z,77.70
2018-03-20T21:31:22.582Z,50.03
2018-03-20T21:33:50.652Z,44.88
2018-03-20T21:36:18.850Z,42.10
2018-03-20T21:38:47.215Z,40.00
2018-03-20T21:41:15.655Z,41.85
2018-03-20T21:43:43.783Z,43.47
2018-03-20T21:46:11.995Z,38.08
2018-03-20T21:48:40.114Z,36.88
2018-03-20T21:51:08.209Z,36.63
2018-03-20T21:53:37.037Z,35.75
2018-03-20T21:56:05.021Z,36.00
2018-03-20T21:58:33.280Z,35.67
2018-03-20T22:01:01.381Z,24.80
2018-03-20T22:03:29.574Z,34.83
2018-03-20T22:05:57.671Z,32.22
2018-03-20T22:08:25.878Z,25.65
2018-03-20T22:10:54.056Z,23.45
2018-03-20T22:13:22.356Z,22.20
2018-03-20T22:15:50.658Z,31.55
2018-03-20T22:18:18.845Z,29.63
2018-03-20T22:20:47.012Z,23.50
2018-03-20T22:23:15.194Z,26.55
2018-03-20T22:25:43.424Z,33.97
2018-03-20T22:28:11.942Z,34.28
2018-03-20T22:30:39.925Z,34.08
2018-03-20T22:33:08.225Z,35.22
2018-03-20T22:35:36.405Z,33.13
2018-03-20T22:38:04.712Z,39.53
2018-03-20T22:40:32.810Z,39.22
2018-03-20T22:43:01.095Z,38.80
2018-03-20T22:45:29.191Z,41.05
2018-03-20T22:47:57.585Z,38.97
2018-03-20T22:50:25.884Z,35.08
2018-03-20T22:52:54.089Z,40.80
2018-03-20T22:55:22.286Z,35.78
2018-03-20T22:57:50.689Z,42.97
2018-03-20T23:00:19.404Z,36.92
2018-03-20T23:02:47.677Z,43.53
2018-03-20T23:05:15.780Z,41.37
2018-03-20T23:07:44.077Z,40.58
2018-03-20T23:10:12.099Z,39.50
2018-03-20T23:12:40.445Z,39.47
2018-03-20T23:15:08.689Z,42.33
2018-03-20T23:17:36.946Z,45.83
2018-03-20T23:20:04.979Z,34.53
2018-03-20T23:22:33.194Z,29.02
2018-03-20T23:25:01.623Z,28.92
2018-03-20T23:27:30.033Z,25.80
2018-03-20T23:29:59.250Z,22.77
2018-03-20T23:32:27.653Z,21.65
2018-03-20T23:34:55.837Z,29.50
2018-03-20T23:37:24.135Z,32.78
2018-03-20T23:39:52.651Z,23.55
2018-03-20T23:42:21.344Z,21.15
2018-03-20T23:44:49.540Z,19.17
2018-03-20T23:47:17.634Z,22.37
2018-03-20T23:49:45.785Z,27.77
2018-03-20T23:52:13.829Z,30.88
2018-03-20T23:54:41.911Z,25.75
2018-03-20T23:57:10.097Z,27.30
2018-03-20T23:59:38.167Z,24.45
